Time;durP1;ratioP1;P1;durP2;ratioP2;P2;SDS_P1;SDS_P2;PMS_P1;PMS_P2;Temp;Humidity;BMP_temperature;BMP_pressure;BME280_temperature;BME280_humidity;BME280_pressure;Samples;Min_cycle;Max_cycle;Signal;HPM_P1;HPM_P2
2023/07/31 00:01:31;;;;;;;2.05;0.98;;;;;;;;;;4989973;28;20450;-64
2023/07/31 00:03:57;;;;;;;2.20;1.02;;;;;;;;;;4989211;28;20136;-65
2023/07/31 00:06:23;;;;;;;2.28;0.90;;;;;;;;;;4990563;28;20530;-65
2023/07/31 00:08:48;;;;;;;1.85;0.90;;;;;;;;;;4985975;28;20022;-65
2023/07/31 00:11:13;;;;;;;3.47;1.00;;;;;;;;;;4990261;28;20026;-65
2023/07/31 00:13:39;;;;;;;2.05;1.08;;;;;;;;;;5007962;28;20080;-62
2023/07/31 00:16:04;;;;;;;2.22;1.00;;;;;;;;;;4995130;28;20034;-64
2023/07/31 00:18:29;;;;;;;1.48;0.93;;;;;;;;;;4994389;28;20606;-64
2023/07/31 00:20:55;;;;;;;3.17;1.15;;;;;;;;;;4991710;28;20033;-63
2023/07/31 00:23:20;;;;;;;2.30;0.98;;;;;;;;;;4992959;28;20032;-63
2023/07/31 00:25:45;;;;;;;2.78;1.20;;;;;;;;;;4991010;28;20493;-65
2023/07/31 00:28:11;;;;;;;2.10;0.70;;;;;;;;;;4989723;28;20022;-62
2023/07/31 00:30:36;;;;;;;3.45;0.95;;;;;;;;;;4989076;28;20468;-64
2023/07/31 00:33:02;;;;;;;2.72;0.90;;;;;;;;;;4988560;28;20061;-64
2023/07/31 00:35:27;;;;;;;2.42;0.70;;;;;;;;;;4990060;28;20026;-64
2023/07/31 00:37:52;;;;;;;2.78;1.17;;;;;;;;;;4987241;28;20084;-64
2023/07/31 00:40:18;;;;;;;2.60;0.75;;;;;;;;;;4991184;28;20030;-63
2023/07/31 00:42:43;;;;;;;4.03;1.25;;;;;;;;;;4985969;28;20034;-64
2023/07/31 00:45:09;;;;;;;3.03;1.00;;;;;;;;;;4992227;28;20026;-63
2023/07/31 00:47:34;;;;;;;2.95;1.08;;;;;;;;;;4989549;28;20030;-64
2023/07/31 00:49:59;;;;;;;3.97;1.30;;;;;;;;;;4986567;28;20025;-64
2023/07/31 00:52:25;;;;;;;4.55;1.00;;;;;;;;;;4988023;28;20088;-64
2023/07/31 00:54:50;;;;;;;1.80;1.13;;;;;;;;;;4990251;28;20253;-65
2023/07/31 00:57:16;;;;;;;2.35;1.05;;;;;;;;;;4991428;28;20034;-65
2023/07/31 00:59:41;;;;;;;3.03;0.95;;;;;;;;;;4986538;28;20030;-65
2023/07/31 01:02:07;;;;;;;2.42;1.30;;;;;;;;;;4990248;28;20467;-66
2023/07/31 01:04:32;;;;;;;2.50;1.02;;;;;;;;;;4987960;28;20056;-64
2023/07/31 01:07:12;;;;;;;2.78;1.30;;;;;;;;;;4986233;28;20395;-65
2023/07/31 01:09:49;;;;;;;1.98;1.10;;;;;;;;;;4987147;28;20437;-66
2023/07/31 01:12:16;;;;;;;1.65;0.70;;;;;;;;;;4989898;28;20032;-63
2023/07/31 01:14:51;;;;;;;1.85;0.80;;;;;;;;;;4994740;28;20111;-66
2023/07/31 01:17:16;;;;;;;2.72;1.25;;;;;;;;;;4985251;28;20022;-66
2023/07/31 01:19:42;;;;;;;1.95;1.00;;;;;;;;;;4991269;28;20079;-65
2023/07/31 01:22:41;;;;;;;3.65;1.08;;;;;;;;;;4984705;28;20031;-65
2023/07/31 01:25:44;;;;;;;2.78;1.10;;;;;;;;;;4990520;28;20071;-63
2023/07/31 01:28:23;;;;;;;2.03;0.88;;;;;;;;;;4987919;28;20076;-66
2023/07/31 01:30:49;;;;;;;1.98;1.10;;;;;;;;;;4985262;28;20030;-67
2023/07/31 01:33:18;;;;;;;2.80;0.90;;;;;;;;;;4990271;28;20019;-67
2023/07/31 01:35:46;;;;;;;3.33;1.13;;;;;;;;;;4988632;28;20080;-66
2023/07/31 01:38:11;;;;;;;4.20;1.88;;;;;;;;;;4993642;28;20498;-66
2023/07/31 01:40:37;;;;;;;2.10;1.20;;;;;;;;;;4993385;28;20045;-66
2023/07/31 01:43:02;;;;;;;2.55;1.38;;;;;;;;;;4991031;28;20038;-64
2023/07/31 01:45:28;;;;;;;3.95;1.20;;;;;;;;;;4991799;28;20022;-66
2023/07/31 01:47:53;;;;;;;3.38;1.50;;;;;;;;;;4992654;28;20131;-65
2023/07/31 01:50:18;;;;;;;4.05;1.50;;;;;;;;;;4991913;28;20045;-65
2023/07/31 01:52:44;;;;;;;2.55;1.05;;;;;;;;;;4998354;28;20022;-66
2023/07/31 01:55:09;;;;;;;3.72;1.10;;;;;;;;;;4994611;28;20065;-66
2023/07/31 01:57:36;;;;;;;4.65;1.30;;;;;;;;;;4994403;28;20026;-65
2023/07/31 02:00:02;;;;;;;3.88;1.48;;;;;;;;;;4990459;28;20438;-66
2023/07/31 02:02:27;;;;;;;4.63;1.40;;;;;;;;;;4989815;28;20113;-66
2023/07/31 02:04:53;;;;;;;3.38;1.17;;;;;;;;;;4990519;28;20427;-65
2023/07/31 02:07:18;;;;;;;3.28;1.40;;;;;;;;;;4998497;28;20030;-66
2023/07/31 02:09:43;;;;;;;2.35;1.20;;;;;;;;;;4990881;28;20045;-66
2023/07/31 02:12:09;;;;;;;3.85;1.10;;;;;;;;;;4988038;28;20114;-66
2023/07/31 02:14:34;;;;;;;3.92;1.55;;;;;;;;;;4993836;28;20030;-66
2023/07/31 02:17:00;;;;;;;4.55;1.20;;;;;;;;;;4990301;28;20029;-65
2023/07/31 02:19:25;;;;;;;1.65;0.90;;;;;;;;;;4988778;28;20080;-66
2023/07/31 02:21:51;;;;;;;3.97;1.60;;;;;;;;;;4987833;28;22231;-65
2023/07/31 02:24:16;;;;;;;2.78;1.30;;;;;;;;;;4990987;28;20018;-67
2023/07/31 02:26:42;;;;;;;3.60;1.60;;;;;;;;;;4997609;28;20060;-66
2023/07/31 02:29:08;;;;;;;6.97;1.40;;;;;;;;;;4994808;28;20429;-66
2023/07/31 02:31:33;;;;;;;3.65;1.30;;;;;;;;;;4994337;28;20035;-65
2023/07/31 02:33:59;;;;;;;2.15;1.10;;;;;;;;;;4992369;28;20034;-66
2023/07/31 02:36:24;;;;;;;2.70;1.40;;;;;;;;;;4991648;28;20033;-66
2023/07/31 02:38:49;;;;;;;5.13;1.70;;;;;;;;;;4987200;28;20077;-66
2023/07/31 02:41:15;;;;;;;5.80;1.95;;;;;;;;;;4993014;28;20503;-66
2023/07/31 02:43:40;;;;;;;1.83;1.15;;;;;;;;;;4992712;28;20030;-65
2023/07/31 02:46:06;;;;;;;4.32;1.50;;;;;;;;;;4992525;28;20030;-66
2023/07/31 02:48:31;;;;;;;4.80;1.77;;;;;;;;;;4988032;28;20436;-66
2023/07/31 02:50:57;;;;;;;2.42;1.20;;;;;;;;;;4988957;28;20056;-65
2023/07/31 02:53:23;;;;;;;1.80;0.90;;;;;;;;;;4993762;28;20500;-66
2023/07/31 02:55:48;;;;;;;2.55;1.33;;;;;;;;;;4991986;28;20026;-66
2023/07/31 02:58:14;;;;;;;3.05;1.70;;;;;;;;;;4992786;28;20459;-66
2023/07/31 03:00:45;;;;;;;2.08;1.23;;;;;;;;;;4989659;28;20030;-66
2023/07/31 03:03:10;;;;;;;3.28;1.08;;;;;;;;;;4990802;28;20682;-66
2023/07/31 03:05:36;;;;;;;1.80;1.10;;;;;;;;;;4990155;28;20030;-67
2023/07/31 03:08:01;;;;;;;3.25;1.13;;;;;;;;;;4992899;28;20026;-67
2023/07/31 03:10:27;;;;;;;2.63;1.30;;;;;;;;;;4988435;28;20034;-67
2023/07/31 03:12:52;;;;;;;2.72;1.60;;;;;;;;;;4991614;28;20022;-67
2023/07/31 03:15:18;;;;;;;6.07;1.70;;;;;;;;;;4991687;28;20029;-67
2023/07/31 03:17:43;;;;;;;3.45;1.50;;;;;;;;;;4991883;28;20026;-67
2023/07/31 03:20:09;;;;;;;3.78;1.42;;;;;;;;;;4993243;28;20622;-67
2023/07/31 03:22:35;;;;;;;2.65;1.17;;;;;;;;;;4990605;28;20036;-67
2023/07/31 03:25:01;;;;;;;5.72;2.08;;;;;;;;;;4992219;28;20079;-66
2023/07/31 03:27:26;;;;;;;1.83;0.80;;;;;;;;;;4993062;28;20041;-67
2023/07/31 03:29:52;;;;;;;4.50;1.80;;;;;;;;;;4986194;28;20022;-67
2023/07/31 03:32:17;;;;;;;4.45;2.40;;;;;;;;;;4989740;28;20417;-67
2023/07/31 03:34:42;;;;;;;3.75;1.60;;;;;;;;;;4991205;28;20030;-66
2023/07/31 03:37:09;;;;;;;2.65;1.60;;;;;;;;;;4992276;28;20483;-67
2023/07/31 03:39:35;;;;;;;4.30;1.73;;;;;;;;;;4991899;28;20161;-66
2023/07/31 03:42:00;;;;;;;4.53;1.60;;;;;;;;;;4992467;28;20106;-67
2023/07/31 03:44:26;;;;;;;4.25;1.95;;;;;;;;;;4988525;28;20035;-68
2023/07/31 03:46:51;;;;;;;2.38;1.05;;;;;;;;;;4991987;28;20030;-67
2023/07/31 03:49:16;;;;;;;2.35;1.52;;;;;;;;;;4991383;28;20027;-67
2023/07/31 03:51:42;;;;;;;5.35;1.77;;;;;;;;;;4989887;28;20152;-66
2023/07/31 03:54:07;;;;;;;2.83;1.05;;;;;;;;;;4992431;28;20109;-67
2023/07/31 03:56:33;;;;;;;4.28;1.60;;;;;;;;;;4990041;28;20661;-66
2023/07/31 03:58:59;;;;;;;5.00;1.70;;;;;;;;;;4989812;28;20053;-65
2023/07/31 04:01:26;;;;;;;5.00;2.10;;;;;;;;;;4986712;28;20748;-66
2023/07/31 04:03:51;;;;;;;2.50;1.38;;;;;;;;;;4987786;28;20049;-66
2023/07/31 04:06:18;;;;;;;4.07;1.60;;;;;;;;;;4989902;28;20075;-66
2023/07/31 04:08:44;;;;;;;6.57;1.85;;;;;;;;;;4987757;28;20030;-66
2023/07/31 04:11:11;;;;;;;3.38;1.25;;;;;;;;;;4987836;28;20022;-66
2023/07/31 04:13:36;;;;;;;2.05;1.10;;;;;;;;;;4984298;28;20056;-66
2023/07/31 04:16:01;;;;;;;3.00;1.45;;;;;;;;;;4986158;28;20034;-66
2023/07/31 04:18:27;;;;;;;2.08;1.25;;;;;;;;;;4983885;28;20621;-66
2023/07/31 04:20:53;;;;;;;2.05;1.25;;;;;;;;;;4989067;28;20033;-66
2023/07/31 04:23:18;;;;;;;3.80;1.60;;;;;;;;;;4987595;28;20537;-65
2023/07/31 04:25:43;;;;;;;4.70;1.58;;;;;;;;;;4989586;28;20037;-66
2023/07/31 04:28:09;;;;;;;5.03;1.67;;;;;;;;;;4989860;28;20435;-66
2023/07/31 04:30:34;;;;;;;3.75;1.58;;;;;;;;;;4988806;28;20033;-66
2023/07/31 04:33:00;;;;;;;3.55;1.90;;;;;;;;;;5001030;28;20125;-66
2023/07/31 04:35:25;;;;;;;3.42;1.73;;;;;;;;;;4984576;28;20039;-66
2023/07/31 04:37:50;;;;;;;6.07;2.05;;;;;;;;;;4987586;28;20402;-65
2023/07/31 04:40:16;;;;;;;2.75;1.40;;;;;;;;;;4984682;28;20651;-65
2023/07/31 04:42:41;;;;;;;2.17;1.05;;;;;;;;;;4989424;28;20026;-65
2023/07/31 04:45:08;;;;;;;2.78;1.55;;;;;;;;;;4985209;28;20058;-65
2023/07/31 04:47:34;;;;;;;3.58;1.33;;;;;;;;;;4987805;28;20037;-65
2023/07/31 04:49:59;;;;;;;3.83;1.50;;;;;;;;;;4983817;28;20022;-65
2023/07/31 04:52:24;;;;;;;3.88;2.13;;;;;;;;;;4986655;28;20022;-65
2023/07/31 04:54:50;;;;;;;3.90;1.83;;;;;;;;;;4980991;28;20042;-65
2023/07/31 04:57:15;;;;;;;3.35;1.45;;;;;;;;;;4990330;28;20030;-65
2023/07/31 04:59:41;;;;;;;4.72;1.45;;;;;;;;;;4988716;28;20030;-65
2023/07/31 05:02:08;;;;;;;3.97;1.67;;;;;;;;;;4983273;28;20048;-65
2023/07/31 05:04:33;;;;;;;3.22;1.95;;;;;;;;;;4988970;28;20022;-64
2023/07/31 05:06:59;;;;;;;2.67;1.58;;;;;;;;;;4990279;28;20729;-65
2023/07/31 05:09:24;;;;;;;2.67;1.38;;;;;;;;;;4988062;28;20706;-65
2023/07/31 05:11:50;;;;;;;2.80;1.33;;;;;;;;;;4988490;28;20030;-66
2023/07/31 05:14:15;;;;;;;5.93;1.90;;;;;;;;;;4986506;28;20133;-65
2023/07/31 05:16:41;;;;;;;3.78;1.85;;;;;;;;;;4990273;28;20026;-65
2023/07/31 05:19:06;;;;;;;4.90;2.28;;;;;;;;;;4989208;28;20216;-64
2023/07/31 05:21:32;;;;;;;1.80;1.00;;;;;;;;;;4993042;28;20824;-65
2023/07/31 05:23:57;;;;;;;3.15;1.50;;;;;;;;;;4988092;28;20523;-65
2023/07/31 05:26:23;;;;;;;3.65;2.15;;;;;;;;;;4993174;28;20518;-65
2023/07/31 05:28:48;;;;;;;1.67;1.13;;;;;;;;;;4991012;28;20026;-65
2023/07/31 05:31:14;;;;;;;2.85;1.60;;;;;;;;;;4991327;28;20113;-66
2023/07/31 05:33:39;;;;;;;1.92;1.25;;;;;;;;;;4988817;28;20076;-65
2023/07/31 05:36:05;;;;;;;5.18;2.60;;;;;;;;;;4993863;28;20022;-64
2023/07/31 05:38:30;;;;;;;4.25;2.03;;;;;;;;;;4988898;28;20054;-64
2023/07/31 05:40:55;;;;;;;4.50;1.92;;;;;;;;;;4989191;28;20514;-65
2023/07/31 05:43:21;;;;;;;3.35;1.92;;;;;;;;;;4990663;28;20713;-65
2023/07/31 05:45:47;;;;;;;2.30;1.42;;;;;;;;;;4990628;28;20034;-65
2023/07/31 05:48:13;;;;;;;4.03;1.80;;;;;;;;;;4992793;28;20039;-65
2023/07/31 05:50:39;;;;;;;2.58;1.42;;;;;;;;;;4990193;28;20080;-65
2023/07/31 05:53:05;;;;;;;1.95;1.15;;;;;;;;;;5006000;28;20140;-65
2023/07/31 05:55:31;;;;;;;2.42;1.33;;;;;;;;;;4988698;28;20117;-65
2023/07/31 05:57:56;;;;;;;2.25;1.30;;;;;;;;;;4992662;28;20041;-66
2023/07/31 06:00:22;;;;;;;1.90;1.10;;;;;;;;;;4990505;28;20121;-65
2023/07/31 06:02:48;;;;;;;2.20;1.58;;;;;;;;;;4992180;28;20029;-65
2023/07/31 06:05:14;;;;;;;5.65;1.75;;;;;;;;;;4992994;28;20030;-64
2023/07/31 06:07:39;;;;;;;15.93;2.58;;;;;;;;;;4992208;28;20080;-65
2023/07/31 06:10:05;;;;;;;4.60;2.00;;;;;;;;;;4992149;28;20391;-64
2023/07/31 06:12:35;;;;;;;2.15;1.02;;;;;;;;;;4991545;28;20518;-65
2023/07/31 06:15:01;;;;;;;4.28;2.03;;;;;;;;;;4993049;28;20041;-65
2023/07/31 06:17:27;;;;;;;3.05;1.50;;;;;;;;;;4993289;28;20772;-65
2023/07/31 06:19:53;;;;;;;8.35;1.63;;;;;;;;;;4992865;28;20036;-63
2023/07/31 06:22:18;;;;;;;4.15;1.92;;;;;;;;;;4989401;28;20399;-65
2023/07/31 06:24:44;;;;;;;2.13;1.08;;;;;;;;;;4986584;28;20037;-65
2023/07/31 06:27:10;;;;;;;3.10;1.48;;;;;;;;;;4990760;28;20022;-64
2023/07/31 06:29:35;;;;;;;2.83;1.55;;;;;;;;;;4990739;28;20054;-65
2023/07/31 06:32:01;;;;;;;6.25;2.35;;;;;;;;;;4993916;28;20025;-65
2023/07/31 06:34:26;;;;;;;4.68;1.75;;;;;;;;;;4991628;28;20439;-65
2023/07/31 06:36:52;;;;;;;4.97;2.33;;;;;;;;;;4998096;28;20018;-64
2023/07/31 06:39:17;;;;;;;1.98;1.20;;;;;;;;;;4990318;28;20387;-64
2023/07/31 06:41:43;;;;;;;2.63;1.50;;;;;;;;;;4991613;28;20033;-65
2023/07/31 06:44:09;;;;;;;2.85;1.27;;;;;;;;;;4994372;28;20030;-64
2023/07/31 06:46:35;;;;;;;2.28;1.25;;;;;;;;;;4992030;28;20483;-64
2023/07/31 06:49:00;;;;;;;5.85;1.98;;;;;;;;;;4998275;28;20038;-64
2023/07/31 06:51:26;;;;;;;2.92;1.65;;;;;;;;;;4994604;28;20026;-64
2023/07/31 06:53:51;;;;;;;3.45;1.85;;;;;;;;;;4987998;28;20038;-64
2023/07/31 06:56:16;;;;;;;3.05;1.25;;;;;;;;;;4991159;28;20026;-64
2023/07/31 06:58:42;;;;;;;3.63;1.77;;;;;;;;;;4987150;28;20102;-65
2023/07/31 07:01:08;;;;;;;1.40;0.98;;;;;;;;;;4989132;28;20026;-64
2023/07/31 07:03:33;;;;;;;5.18;1.88;;;;;;;;;;4987709;28;20033;-65
2023/07/31 07:05:59;;;;;;;1.63;1.20;;;;;;;;;;4990224;28;20036;-65
2023/07/31 07:08:25;;;;;;;4.25;1.88;;;;;;;;;;4991818;28;20026;-64
2023/07/31 07:10:50;;;;;;;4.78;2.08;;;;;;;;;;4988155;28;20064;-64
2023/07/31 07:13:18;;;;;;;4.22;1.98;;;;;;;;;;4989223;28;20026;-65
2023/07/31 07:15:43;;;;;;;3.83;1.73;;;;;;;;;;4991080;28;20018;-64
2023/07/31 07:18:10;;;;;;;3.92;1.85;;;;;;;;;;4989680;28;20037;-64
2023/07/31 07:20:35;;;;;;;2.40;1.30;;;;;;;;;;4990836;28;20038;-64
2023/07/31 07:23:01;;;;;;;3.00;1.60;;;;;;;;;;4990040;28;20405;-64
2023/07/31 07:25:27;;;;;;;4.32;1.92;;;;;;;;;;4987536;28;20092;-64
2023/07/31 07:27:52;;;;;;;2.60;1.55;;;;;;;;;;4989156;28;20125;-63
2023/07/31 07:30:19;;;;;;;2.42;1.42;;;;;;;;;;4987865;28;20571;-63
2023/07/31 07:32:45;;;;;;;4.43;1.50;;;;;;;;;;4992398;28;20033;-64
2023/07/31 07:35:10;;;;;;;3.33;1.50;;;;;;;;;;4990057;28;20021;-64
2023/07/31 07:37:35;;;;;;;2.63;1.30;;;;;;;;;;4990731;28;20037;-63
2023/07/31 07:40:01;;;;;;;3.05;1.50;;;;;;;;;;4986270;28;20277;-63
2023/07/31 07:42:26;;;;;;;4.47;1.92;;;;;;;;;;4990659;28;20029;-64
2023/07/31 07:44:51;;;;;;;6.28;1.70;;;;;;;;;;4991041;28;20440;-63
2023/07/31 07:47:17;;;;;;;3.03;1.70;;;;;;;;;;4990391;28;20030;-63
2023/07/31 07:49:42;;;;;;;2.03;1.40;;;;;;;;;;4992593;28;20037;-64
2023/07/31 07:52:07;;;;;;;3.42;2.00;;;;;;;;;;4988577;28;20631;-64
2023/07/31 07:54:33;;;;;;;3.80;1.35;;;;;;;;;;4989164;28;20021;-66
2023/07/31 07:56:59;;;;;;;3.03;1.60;;;;;;;;;;4989813;28;20042;-66
2023/07/31 07:59:24;;;;;;;3.25;1.92;;;;;;;;;;4992191;28;20026;-65
2023/07/31 08:01:50;;;;;;;2.88;1.60;;;;;;;;;;4990995;28;20037;-65
2023/07/31 08:04:15;;;;;;;4.10;1.77;;;;;;;;;;4989347;28;20129;-65
2023/07/31 08:06:40;;;;;;;4.05;1.92;;;;;;;;;;4990200;28;20030;-65
2023/07/31 08:09:06;;;;;;;3.40;1.70;;;;;;;;;;4988031;28;20547;-64
2023/07/31 08:11:34;;;;;;;3.08;1.50;;;;;;;;;;4990734;28;20041;-64
2023/07/31 08:14:00;;;;;;;4.03;1.77;;;;;;;;;;4990825;28;20030;-65
2023/07/31 08:16:25;;;;;;;3.92;1.70;;;;;;;;;;4990436;28;20026;-66
2023/07/31 08:18:50;;;;;;;4.32;1.60;;;;;;;;;;4989915;28;20040;-66
2023/07/31 08:21:16;;;;;;;2.97;1.33;;;;;;;;;;4987961;28;20034;-66
2023/07/31 08:23:41;;;;;;;3.40;1.40;;;;;;;;;;4990291;28;20768;-65
2023/07/31 08:26:07;;;;;;;2.97;1.40;;;;;;;;;;5006741;28;20037;-65
2023/07/31 08:28:32;;;;;;;0.98;0.75;;;;;;;;;;4993228;28;20038;-65
2023/07/31 08:30:57;;;;;;;2.45;1.40;;;;;;;;;;4989807;28;20054;-65
2023/07/31 08:33:23;;;;;;;2.88;1.50;;;;;;;;;;4989724;28;20037;-65
2023/07/31 08:35:48;;;;;;;3.58;1.50;;;;;;;;;;4989797;28;20467;-64
2023/07/31 08:38:14;;;;;;;3.80;1.63;;;;;;;;;;4989461;28;20065;-64
2023/07/31 08:40:40;;;;;;;4.43;1.85;;;;;;;;;;4989974;28;20555;-65
2023/07/31 08:43:05;;;;;;;2.72;1.27;;;;;;;;;;4993119;28;20073;-65
2023/07/31 08:45:32;;;;;;;2.67;1.45;;;;;;;;;;4992465;28;20030;-64
2023/07/31 08:47:59;;;;;;;4.22;1.90;;;;;;;;;;4987099;28;20034;-64
2023/07/31 08:50:24;;;;;;;3.70;1.80;;;;;;;;;;4987514;28;20080;-65
2023/07/31 08:52:51;;;;;;;3.65;2.20;;;;;;;;;;4989199;28;20030;-65
2023/07/31 08:55:16;;;;;;;4.25;1.77;;;;;;;;;;4985352;28;20042;-65
2023/07/31 08:57:43;;;;;;;3.50;1.90;;;;;;;;;;4989132;28;20363;-64
2023/07/31 09:00:10;;;;;;;3.63;2.10;;;;;;;;;;4987981;28;20026;-64
2023/07/31 09:02:48;;;;;;;4.32;1.80;;;;;;;;;;4990058;28;20085;-64
2023/07/31 09:05:15;;;;;;;3.70;1.70;;;;;;;;;;4987950;28;20026;-64
2023/07/31 09:07:46;;;;;;;4.28;2.17;;;;;;;;;;4991997;28;20030;-64
2023/07/31 09:10:11;;;;;;;4.38;2.05;;;;;;;;;;4990900;28;20030;-65
2023/07/31 09:12:38;;;;;;;0.98;0.77;;;;;;;;;;4986512;28;20037;-65
2023/07/31 09:15:04;;;;;;;4.60;2.30;;;;;;;;;;4988997;28;20042;-64
2023/07/31 09:17:38;;;;;;;4.00;2.08;;;;;;;;;;4986875;28;20034;-64
2023/07/31 09:20:19;;;;;;;1.13;0.70;;;;;;;;;;4987879;28;20041;-64
2023/07/31 09:22:45;;;;;;;4.38;1.75;;;;;;;;;;4988628;28;20030;-65
2023/07/31 09:25:28;;;;;;;5.30;2.05;;;;;;;;;;4990060;28;20053;-65
2023/07/31 09:28:01;;;;;;;4.88;2.72;;;;;;;;;;4991166;28;20038;-65
2023/07/31 09:30:27;;;;;;;2.80;1.58;;;;;;;;;;4991202;28;20454;-64
2023/07/31 09:33:05;;;;;;;3.42;1.25;;;;;;;;;;4987685;28;20100;-63
2023/07/31 09:35:33;;;;;;;4.78;2.17;;;;;;;;;;4985717;28;20116;-63
2023/07/31 09:38:07;;;;;;;1.30;0.80;;;;;;;;;;4988256;28;20074;-64
2023/07/31 09:40:34;;;;;;;4.32;2.25;;;;;;;;;;4987029;28;20033;-64
2023/07/31 09:43:04;;;;;;;3.53;2.10;;;;;;;;;;4990187;28;20022;-64
2023/07/31 09:45:34;;;;;;;5.07;2.25;;;;;;;;;;4991096;28;20109;-64
2023/07/31 09:47:59;;;;;;;3.67;1.80;;;;;;;;;;4988830;28;20092;-65
2023/07/31 09:50:24;;;;;;;5.10;2.22;;;;;;;;;;4985536;28;20459;-64
2023/07/31 09:52:51;;;;;;;4.15;2.17;;;;;;;;;;4989162;28;20034;-65
2023/07/31 09:55:17;;;;;;;4.07;2.05;;;;;;;;;;4978775;28;20034;-65
2023/07/31 09:57:46;;;;;;;3.03;1.83;;;;;;;;;;4989604;28;20018;-65
2023/07/31 10:00:14;;;;;;;2.15;1.10;;;;;;;;;;4987935;28;20034;-65
2023/07/31 10:02:39;;;;;;;2.67;1.80;;;;;;;;;;5008059;28;20036;-64
2023/07/31 10:05:06;;;;;;;4.65;2.38;;;;;;;;;;4991153;28;20030;-65
2023/07/31 10:07:40;;;;;;;3.38;1.95;;;;;;;;;;4990298;28;20038;-64
2023/07/31 10:10:09;;;;;;;4.15;1.92;;;;;;;;;;4988621;28;20022;-65
2023/07/31 10:12:35;;;;;;;3.63;1.83;;;;;;;;;;4994290;28;22365;-65
2023/07/31 10:15:01;;;;;;;2.47;1.10;;;;;;;;;;4995940;28;20112;-65
2023/07/31 10:17:27;;;;;;;3.97;1.90;;;;;;;;;;4994655;28;20657;-65
2023/07/31 10:19:53;;;;;;;2.08;1.30;;;;;;;;;;4991950;28;20138;-65
2023/07/31 10:22:20;;;;;;;6.32;2.40;;;;;;;;;;4992880;28;20037;-65
2023/07/31 10:24:48;;;;;;;2.72;1.35;;;;;;;;;;4989108;28;20030;-65
2023/07/31 10:27:13;;;;;;;3.83;1.77;;;;;;;;;;4992825;28;20034;-65
2023/07/31 10:29:40;;;;;;;3.58;1.98;;;;;;;;;;4992861;28;20030;-65
2023/07/31 10:32:11;;;;;;;4.22;1.77;;;;;;;;;;4992795;28;20304;-65
2023/07/31 10:34:40;;;;;;;4.28;1.98;;;;;;;;;;4989903;28;20133;-65
2023/07/31 10:37:38;;;;;;;5.13;1.85;;;;;;;;;;4989129;28;20499;-65
2023/07/31 10:40:05;;;;;;;4.95;1.77;;;;;;;;;;4989478;28;20022;-64
2023/07/31 10:42:37;;;;;;;5.38;2.38;;;;;;;;;;4989581;28;20058;-65
2023/07/31 10:45:03;;;;;;;;;;;;;;;;;;4990111;28;20477;-64
2023/07/31 10:47:29;;;;;;;5.72;2.13;;;;;;;;;;4993567;28;19922;-64
2023/07/31 10:50:18;;;;;;;3.88;2.17;;;;;;;;;;4988271;28;20162;-63
2023/07/31 10:52:46;;;;;;;5.05;1.90;;;;;;;;;;4987050;28;20093;-64
2023/07/31 10:55:23;;;;;;;5.78;2.78;;;;;;;;;;4995730;28;20677;-64
2023/07/31 10:57:49;;;;;;;4.30;2.10;;;;;;;;;;4993560;28;20026;-64
2023/07/31 11:00:28;;;;;;;3.78;2.00;;;;;;;;;;4986619;28;20026;-64
2023/07/31 11:03:01;;;;;;;4.82;1.73;;;;;;;;;;4989177;28;20042;-63
2023/07/31 11:05:46;;;;;;;5.00;1.88;;;;;;;;;;4990000;28;20029;-63
2023/07/31 11:08:12;;;;;;;5.10;2.50;;;;;;;;;;4992309;28;20108;-64
2023/07/31 11:10:38;;;;;;;5.97;2.47;;;;;;;;;;4994570;28;20022;-64
2023/07/31 11:13:06;;;;;;;4.82;2.35;;;;;;;;;;4990714;28;20463;-64
2023/07/31 11:15:31;;;;;;;5.70;2.33;;;;;;;;;;4990005;28;20033;-64
2023/07/31 11:18:00;;;;;;;6.07;2.42;;;;;;;;;;4988282;28;20034;-64
2023/07/31 11:20:25;;;;;;;3.88;1.77;;;;;;;;;;4985358;28;20033;-64
2023/07/31 11:22:51;;;;;;;4.28;2.55;;;;;;;;;;4986565;28;20039;-64
2023/07/31 11:25:17;;;;;;;4.47;2.13;;;;;;;;;;4993180;28;20125;-63
2023/07/31 11:27:43;;;;;;;4.28;2.08;;;;;;;;;;4991069;28;20053;-64
2023/07/31 11:30:09;;;;;;;4.90;2.55;;;;;;;;;;4988196;28;20022;-63
2023/07/31 11:32:38;;;;;;;3.00;1.80;;;;;;;;;;4988477;28;20495;-64
2023/07/31 11:35:05;;;;;;;4.07;2.33;;;;;;;;;;4992169;28;20065;-64
2023/07/31 11:37:41;;;;;;;5.15;2.13;;;;;;;;;;4988277;28;20435;-64
2023/07/31 11:40:07;;;;;;;5.07;2.42;;;;;;;;;;4986679;28;20038;-64
2023/07/31 11:42:34;;;;;;;4.53;2.25;;;;;;;;;;4989452;28;20049;-64
2023/07/31 11:45:02;;;;;;;4.90;2.70;;;;;;;;;;4986747;28;20045;-64
2023/07/31 11:47:28;;;;;;;4.75;2.40;;;;;;;;;;4984203;28;20038;-64
2023/07/31 11:49:53;;;;;;;4.43;2.25;;;;;;;;;;4983737;28;20077;-62
2023/07/31 11:52:23;;;;;;;4.80;1.83;;;;;;;;;;4982425;28;20050;-64
2023/07/31 11:54:49;;;;;;;4.30;1.92;;;;;;;;;;4983873;28;20019;-64
2023/07/31 11:57:15;;;;;;;4.28;2.10;;;;;;;;;;4982945;28;20030;-64
2023/07/31 11:59:41;;;;;;;4.68;2.40;;;;;;;;;;4983993;28;20038;-63
2023/07/31 12:02:07;;;;;;;6.28;2.95;;;;;;;;;;4983172;28;20027;-64
2023/07/31 12:04:32;;;;;;;5.22;2.30;;;;;;;;;;4985572;28;20030;-64
2023/07/31 12:07:00;;;;;;;5.38;2.40;;;;;;;;;;4984204;28;20119;-65
2023/07/31 12:09:26;;;;;;;4.20;2.10;;;;;;;;;;4986341;28;20042;-64
2023/07/31 12:11:53;;;;;;;2.70;1.75;;;;;;;;;;4986693;28;20077;-65
2023/07/31 12:14:25;;;;;;;3.97;2.10;;;;;;;;;;4986668;28;20025;-64
2023/07/31 12:16:55;;;;;;;4.82;2.13;;;;;;;;;;4986085;28;20038;-65
2023/07/31 12:19:21;;;;;;;4.85;2.17;;;;;;;;;;4980564;28;20674;-64
2023/07/31 12:21:47;;;;;;;6.43;2.15;;;;;;;;;;4981468;28;20042;-64
2023/07/31 12:24:12;;;;;;;3.60;1.95;;;;;;;;;;4984487;28;20034;-64
2023/07/31 12:26:38;;;;;;;4.25;2.28;;;;;;;;;;4985433;28;20041;-64
2023/07/31 12:29:07;;;;;;;3.75;1.98;;;;;;;;;;4986876;28;20034;-64
2023/07/31 12:31:34;;;;;;;4.50;1.52;;;;;;;;;;4985071;28;20038;-64
2023/07/31 12:34:00;;;;;;;3.40;1.88;;;;;;;;;;4988001;28;20049;-63
2023/07/31 12:36:27;;;;;;;2.88;1.45;;;;;;;;;;4985100;28;20028;-64
2023/07/31 12:38:55;;;;;;;3.65;1.67;;;;;;;;;;4984060;28;20038;-68
2023/07/31 12:41:21;;;;;;;4.78;1.80;;;;;;;;;;4985421;28;20076;-64
2023/07/31 12:43:46;;;;;;;4.78;2.15;;;;;;;;;;4984741;28;20037;-63
2023/07/31 12:46:12;;;;;;;3.15;1.55;;;;;;;;;;4989374;28;20681;-64
2023/07/31 12:48:39;;;;;;;4.00;1.80;;;;;;;;;;4988846;28;20093;-64
2023/07/31 12:51:04;;;;;;;3.15;1.60;;;;;;;;;;4991630;28;20026;-64
2023/07/31 12:53:30;;;;;;;3.03;1.88;;;;;;;;;;4990909;28;20784;-64
2023/07/31 12:55:56;;;;;;;3.72;1.80;;;;;;;;;;4992605;28;21322;-64
2023/07/31 12:58:22;;;;;;;3.20;1.45;;;;;;;;;;4992867;28;20102;-64
2023/07/31 13:00:47;;;;;;;3.67;1.70;;;;;;;;;;4991538;28;20693;-63
2023/07/31 13:03:13;;;;;;;3.83;2.10;;;;;;;;;;4986609;28;20049;-63
2023/07/31 13:05:39;;;;;;;5.03;2.10;;;;;;;;;;4990427;28;20426;-64
2023/07/31 13:08:05;;;;;;;3.55;1.88;;;;;;;;;;4993746;28;20030;-64
2023/07/31 13:10:30;;;;;;;3.45;1.70;;;;;;;;;;4991689;28;20408;-64
2023/07/31 13:12:56;;;;;;;3.38;1.92;;;;;;;;;;4993636;28;20030;-64
2023/07/31 13:15:21;;;;;;;4.88;1.92;;;;;;;;;;4990526;28;20072;-63
2023/07/31 13:17:47;;;;;;;5.65;1.77;;;;;;;;;;4994672;28;20056;-62
2023/07/31 13:20:12;;;;;;;4.13;1.80;;;;;;;;;;4990247;28;20022;-64
2023/07/31 13:22:38;;;;;;;3.50;1.77;;;;;;;;;;4990831;28;20715;-64
2023/07/31 13:25:05;;;;;;;4.15;1.88;;;;;;;;;;4996706;28;20530;-64
2023/07/31 13:27:30;;;;;;;3.17;2.00;;;;;;;;;;5006597;28;20022;-63
2023/07/31 13:29:56;;;;;;;3.25;1.63;;;;;;;;;;4992692;28;20691;-63
2023/07/31 13:32:21;;;;;;;1.73;1.20;;;;;;;;;;4993135;28;20030;-63
2023/07/31 13:34:47;;;;;;;3.78;1.70;;;;;;;;;;4995350;28;20038;-63
2023/07/31 13:37:13;;;;;;;4.45;1.98;;;;;;;;;;4996649;28;20029;-64
2023/07/31 13:39:39;;;;;;;4.93;2.58;;;;;;;;;;4996175;28;20014;-69
2023/07/31 13:42:12;;;;;;;4.85;1.77;;;;;;;;;;4993450;28;20080;-64
2023/07/31 13:44:38;;;;;;;3.50;1.67;;;;;;;;;;4995980;28;20026;-63
2023/07/31 13:47:04;;;;;;;3.55;1.80;;;;;;;;;;4993879;28;20034;-63
2023/07/31 13:49:30;;;;;;;3.88;2.28;;;;;;;;;;4989216;28;20033;-63
2023/07/31 13:51:56;;;;;;;3.75;1.63;;;;;;;;;;4990379;28;20048;-63
2023/07/31 13:54:25;;;;;;;4.00;2.25;;;;;;;;;;4997392;28;20025;-64
2023/07/31 13:56:52;;;;;;;4.85;2.22;;;;;;;;;;4985953;28;20053;-64
2023/07/31 13:59:17;;;;;;;5.13;2.10;;;;;;;;;;5002776;28;20038;-64
2023/07/31 14:01:43;;;;;;;2.80;1.58;;;;;;;;;;4996696;28;20538;-63
2023/07/31 14:04:10;;;;;;;3.35;2.10;;;;;;;;;;4994057;28;20372;-64
2023/07/31 14:06:36;;;;;;;5.28;1.90;;;;;;;;;;4993268;28;20116;-64
2023/07/31 14:09:02;;;;;;;3.85;2.13;;;;;;;;;;4993413;28;20073;-64
2023/07/31 14:11:28;;;;;;;3.95;2.40;;;;;;;;;;4994709;28;20386;-64
2023/07/31 14:13:53;;;;;;;3.85;2.08;;;;;;;;;;4994053;28;20034;-63
2023/07/31 14:16:19;;;;;;;4.47;2.10;;;;;;;;;;4995964;28;20121;-64
2023/07/31 14:18:47;;;;;;;3.78;2.00;;;;;;;;;;4992810;28;20106;-63
2023/07/31 14:21:13;;;;;;;3.97;2.08;;;;;;;;;;4994450;28;20018;-63
2023/07/31 14:23:39;;;;;;;4.78;2.20;;;;;;;;;;4990323;28;20042;-63
2023/07/31 14:26:04;;;;;;;4.40;2.30;;;;;;;;;;4986439;28;20037;-63
2023/07/31 14:28:30;;;;;;;5.35;2.40;;;;;;;;;;4995749;28;20030;-63
2023/07/31 14:30:55;;;;;;;3.97;1.90;;;;;;;;;;4991625;28;20518;-63
2023/07/31 14:33:21;;;;;;;3.13;1.63;;;;;;;;;;4992599;28;20510;-64
2023/07/31 14:35:46;;;;;;;3.70;1.80;;;;;;;;;;4994740;28;20030;-63
2023/07/31 14:38:11;;;;;;;5.30;2.47;;;;;;;;;;4997380;28;20028;-63
2023/07/31 14:40:38;;;;;;;5.78;2.15;;;;;;;;;;4996033;28;20026;-63